createdAt,value
2022-12-06T00:02:21.859Z,93.50
2022-12-06T00:04:51.756Z,93.50
2022-12-06T00:07:21.687Z,93.40
2022-12-06T00:09:51.730Z,93.60
2022-12-06T00:12:21.573Z,94.00
2022-12-06T00:14:51.465Z,93.80
2022-12-06T00:17:21.385Z,93.90
2022-12-06T00:19:51.289Z,94.00
2022-12-06T00:22:21.192Z,94.10
2022-12-06T00:24:51.247Z,94.10
2022-12-06T00:27:21.163Z,93.90
2022-12-06T00:29:51.181Z,94.00
2022-12-06T00:32:21.276Z,94.10
2022-12-06T00:34:51.191Z,94.20
2022-12-06T00:37:21.073Z,94.10
2022-12-06T00:39:50.994Z,94.10
2022-12-06T00:42:20.889Z,94.10
2022-12-06T00:44:50.742Z,94.20
2022-12-06T00:47:20.740Z,94.30
2022-12-06T00:49:50.735Z,94.20
2022-12-06T00:52:20.650Z,94.10
2022-12-06T00:54:51.080Z,94.30
2022-12-06T00:57:30.261Z,94.20
2022-12-06T01:00:07.181Z,94.10
2022-12-06T01:02:37.600Z,94.00
2022-12-06T01:05:17.449Z,94.10
2022-12-06T01:07:51.073Z,94.20
2022-12-06T01:10:25.878Z,94.10
2022-12-06T01:12:56.013Z,94.20
2022-12-06T01:15:29.315Z,94.20
2022-12-06T01:18:05.815Z,94.30
2022-12-06T01:20:37.230Z,94.10
2022-12-06T01:23:16.569Z,94.00
2022-12-06T01:25:55.281Z,93.70
2022-12-06T01:28:28.703Z,93.50
2022-12-06T01:31:08.564Z,93.40
2022-12-06T01:33:48.579Z,93.50
2022-12-06T01:36:23.386Z,93.60
2022-12-06T01:39:00.187Z,93.80
2022-12-06T01:41:32.664Z,94.00
2022-12-06T01:44:55.821Z,94.00
2022-12-06T01:47:40.982Z,93.90
2022-12-06T01:50:31.217Z,93.70
2022-12-06T01:53:10.468Z,93.50
2022-12-06T01:55:42.192Z,93.40
2022-12-06T01:58:28.618Z,93.30
2022-12-06T02:00:58.739Z,93.40
2022-12-06T02:03:34.041Z,93.10
2022-12-06T02:06:10.431Z,92.90
2022-12-06T02:08:41.551Z,92.80
2022-12-06T02:11:15.529Z,92.80
2022-12-06T02:13:45.814Z,92.50
2022-12-06T02:16:32.926Z,92.40
2022-12-06T02:19:34.667Z,92.20
2022-12-06T02:22:14.934Z,92.00
2022-12-06T02:25:25.181Z,92.30
2022-12-06T02:28:33.789Z,92.30
2022-12-06T02:31:32.707Z,92.50
2022-12-06T02:34:12.924Z,92.20
2022-12-06T02:37:01.258Z,92.10
2022-12-06T02:39:47.366Z,92.20
2022-12-06T02:42:24.371Z,92.10
2022-12-06T02:44:58.407Z,92.00
2022-12-06T02:47:34.051Z,91.90
2022-12-06T02:50:07.429Z,91.90
2022-12-06T02:52:41.766Z,91.90
2022-12-06T02:55:13.997Z,91.80
2022-12-06T02:57:49.570Z,91.80
2022-12-06T03:00:40.173Z,91.40
2022-12-06T03:03:46.117Z,91.30
2022-12-06T03:06:35.681Z,90.90
2022-12-06T03:09:28.122Z,91.40
2022-12-06T03:12:10.480Z,91.60
2022-12-06T03:14:50.432Z,91.20
2022-12-06T03:17:46.440Z,91.20
2022-12-06T03:20:23.462Z,91.20
2022-12-06T03:23:00.631Z,91.00
2022-12-06T03:25:31.774Z,90.80
2022-12-06T03:28:03.380Z,90.70
2022-12-06T03:30:36.884Z,90.70
2022-12-06T03:33:07.637Z,90.50
2022-12-06T03:35:39.625Z,90.30
2022-12-06T03:38:15.951Z,90.00
2022-12-06T03:40:50.367Z,89.80
2022-12-06T03:43:20.395Z,90.20
2022-12-06T03:46:01.784Z,90.30
2022-12-06T03:48:39.675Z,90.10
2022-12-06T03:51:20.710Z,89.50
2022-12-06T03:53:55.255Z,90.00
2022-12-06T03:56:26.212Z,89.70
2022-12-06T03:58:56.143Z,88.70
2022-12-06T04:01:26.214Z,89.30
2022-12-06T04:03:56.277Z,90.10
2022-12-06T04:06:26.743Z,90.00
2022-12-06T04:09:16.773Z,89.90
2022-12-06T04:11:47.039Z,89.60
2022-12-06T04:14:19.903Z,89.00
2022-12-06T04:16:59.982Z,88.90
2022-12-06T04:19:29.984Z,89.60
2022-12-06T04:22:10.237Z,90.00
2022-12-06T04:24:40.176Z,89.80
2022-12-06T04:27:20.496Z,88.70
2022-12-06T04:30:00.839Z,87.80
2022-12-06T04:32:40.835Z,87.70
2022-12-06T04:35:21.095Z,88.00
2022-12-06T04:38:01.271Z,86.50
2022-12-06T04:40:31.148Z,86.80
2022-12-06T04:43:11.579Z,87.10
2022-12-06T04:45:41.925Z,86.60
2022-12-06T04:48:16.946Z,85.60
2022-12-06T04:50:50.821Z,85.90
2022-12-06T04:53:21.624Z,86.20
2022-12-06T04:55:51.941Z,85.50
2022-12-06T04:58:22.173Z,84.80
2022-12-06T05:00:56.290Z,84.40
2022-12-06T05:03:26.772Z,84.00
2022-12-06T05:05:56.865Z,84.50
2022-12-06T05:08:26.804Z,84.60
2022-12-06T05:10:57.904Z,85.10
2022-12-06T05:13:27.991Z,83.80
2022-12-06T05:16:01.481Z,84.20
2022-12-06T05:18:32.513Z,83.10
2022-12-06T05:21:17.160Z,83.20
2022-12-06T05:23:47.125Z,83.70
2022-12-06T05:26:19.335Z,81.50
2022-12-06T05:28:50.520Z,82.00
2022-12-06T05:31:21.779Z,82.40
2022-12-06T05:33:52.310Z,81.80
2022-12-06T05:36:25.519Z,81.40
2022-12-06T05:38:56.703Z,81.20
2022-12-06T05:41:27.489Z,81.10
2022-12-06T05:43:57.572Z,80.50
2022-12-06T05:46:27.675Z,79.70
2022-12-06T05:48:57.700Z,79.90
2022-12-06T05:51:27.692Z,79.00
2022-12-06T05:53:57.595Z,78.00
2022-12-06T05:56:30.795Z,77.30
2022-12-06T05:59:01.014Z,76.90
2022-12-06T06:01:31.084Z,74.80
2022-12-06T06:04:01.107Z,74.40
2022-12-06T06:06:31.181Z,74.70
2022-12-06T06:09:01.900Z,73.90
2022-12-06T06:11:32.337Z,72.10
2022-12-06T06:14:02.279Z,70.50
2022-12-06T06:16:32.417Z,69.40
2022-12-06T06:19:03.621Z,70.70
2022-12-06T06:21:33.503Z,69.30
2022-12-06T06:24:05.087Z,66.30
2022-12-06T06:26:38.236Z,67.60
2022-12-06T06:29:08.365Z,65.50
2022-12-06T06:31:38.714Z,66.40
2022-12-06T06:34:08.034Z,66.80
2022-12-06T06:36:42.405Z,66.10
2022-12-06T06:39:15.505Z,65.70
2022-12-06T06:41:45.486Z,66.00
2022-12-06T06:44:16.002Z,67.20
2022-12-06T06:46:46.484Z,65.10
2022-12-06T06:49:16.503Z,65.80
2022-12-06T06:51:47.025Z,65.70
2022-12-06T06:54:17.386Z,65.20
2022-12-06T06:56:47.257Z,66.30
2022-12-06T06:59:17.284Z,66.20
2022-12-06T07:01:47.490Z,66.20
2022-12-06T07:04:16.964Z,66.50
2022-12-06T07:06:47.110Z,64.90
2022-12-06T07:09:17.166Z,66.70
2022-12-06T07:11:47.270Z,66.10
2022-12-06T07:14:17.279Z,65.10
2022-12-06T07:16:48.186Z,64.90
2022-12-06T07:19:18.767Z,66.20
2022-12-06T07:21:48.870Z,65.30
2022-12-06T07:24:20.518Z,64.60
2022-12-06T07:26:50.587Z,66.30
2022-12-06T07:29:21.212Z,65.50
2022-12-06T07:31:51.283Z,64.90
2022-12-06T07:34:21.394Z,65.50
2022-12-06T07:36:51.514Z,66.20
2022-12-06T07:39:22.411Z,67.00
2022-12-06T07:42:02.828Z,66.40
2022-12-06T07:44:43.010Z,65.50
2022-12-06T07:47:13.198Z,65.70
2022-12-06T07:49:43.538Z,66.20
2022-12-06T07:52:13.647Z,67.20
2022-12-06T07:54:43.594Z,68.10
2022-12-06T07:57:13.696Z,69.30
2022-12-06T07:59:43.825Z,69.20
2022-12-06T08:02:21.420Z,69.70
2022-12-06T08:04:51.618Z,68.50
2022-12-06T08:07:21.032Z,68.20
2022-12-06T08:09:52.640Z,69.10
2022-12-06T08:12:23.857Z,69.10
2022-12-06T08:14:58.196Z,69.60
2022-12-06T08:17:31.486Z,67.60
2022-12-06T08:20:01.777Z,66.30
2022-12-06T08:22:31.895Z,67.50
2022-12-06T08:25:02.350Z,65.70
2022-12-06T08:27:32.286Z,65.70
2022-12-06T08:30:02.617Z,64.80
2022-12-06T08:32:33.046Z,65.30
2022-12-06T08:35:02.442Z,65.40
2022-12-06T08:37:33.056Z,64.40
2022-12-06T08:40:03.429Z,65.00
2022-12-06T08:42:33.578Z,64.90
2022-12-06T08:45:03.678Z,64.60
2022-12-06T08:47:33.907Z,62.60
2022-12-06T08:50:03.469Z,62.90
2022-12-06T08:52:34.173Z,63.00
2022-12-06T08:55:05.600Z,63.40
2022-12-06T08:57:37.101Z,65.20
2022-12-06T09:00:09.874Z,66.00
2022-12-06T09:02:44.485Z,65.70
2022-12-06T09:05:15.104Z,66.50
2022-12-06T09:07:46.948Z,67.10
2022-12-06T09:10:17.814Z,67.60
2022-12-06T09:12:50.834Z,67.30
2022-12-06T09:15:20.937Z,67.20
2022-12-06T09:17:50.444Z,67.60
2022-12-06T09:20:20.059Z,68.00
2022-12-06T09:22:49.434Z,67.90
2022-12-06T09:25:18.875Z,68.60
2022-12-06T09:27:48.370Z,69.50
2022-12-06T09:30:18.779Z,69.90
2022-12-06T09:32:49.606Z,69.10
2022-12-06T09:35:24.748Z,68.60
2022-12-06T09:37:54.697Z,69.10
2022-12-06T09:40:41.327Z,69.90
2022-12-06T09:43:51.180Z,69.70
2022-12-06T09:46:52.133Z,70.10
2022-12-06T09:49:41.375Z,69.50
2022-12-06T09:52:34.530Z,69.40
2022-12-06T09:55:35.976Z,69.10
2022-12-06T09:58:36.360Z,70.50
2022-12-06T10:01:23.859Z,69.90
2022-12-06T10:04:27.646Z,70.20
2022-12-06T10:07:12.305Z,70.80
2022-12-06T10:10:14.084Z,70.90
2022-12-06T10:13:13.668Z,71.50
2022-12-06T10:16:10.083Z,70.20
2022-12-06T10:19:10.131Z,69.70
2022-12-06T10:22:09.146Z,70.10
2022-12-06T10:25:01.757Z,70.30
2022-12-06T10:28:04.878Z,70.60
2022-12-06T10:30:36.986Z,71.70
2022-12-06T10:33:24.826Z,72.20
2022-12-06T10:36:03.881Z,72.80
2022-12-06T10:38:55.274Z,72.60
2022-12-06T10:41:40.875Z,72.60
2022-12-06T10:44:49.706Z,74.10
2022-12-06T10:47:26.021Z,74.10
2022-12-06T10:50:15.845Z,73.80
2022-12-06T10:52:56.075Z,73.80
2022-12-06T10:55:42.839Z,74.70
2022-12-06T10:58:36.370Z,74.70
2022-12-06T11:01:14.618Z,74.20
2022-12-06T11:03:56.633Z,75.60
2022-12-06T11:06:41.012Z,75.70
2022-12-06T11:09:38.114Z,76.10
2022-12-06T11:12:31.231Z,76.00
2022-12-06T11:15:24.654Z,77.10
2022-12-06T11:18:10.291Z,77.20
2022-12-06T11:21:07.089Z,77.40
2022-12-06T11:23:57.911Z,77.40
2022-12-06T11:26:43.859Z,77.80
2022-12-06T11:29:16.208Z,78.50
2022-12-06T11:31:51.474Z,78.40
2022-12-06T11:34:31.633Z,78.80
2022-12-06T11:37:03.703Z,78.80
2022-12-06T11:39:35.411Z,79.30
2022-12-06T11:42:06.752Z,79.50
2022-12-06T11:44:50.058Z,79.40
2022-12-06T11:47:23.643Z,80.40
2022-12-06T11:50:00.408Z,80.20
2022-12-06T11:52:55.473Z,80.70
2022-12-06T11:55:34.402Z,81.00
2022-12-06T11:58:19.010Z,81.20
2022-12-06T12:01:05.780Z,80.90
2022-12-06T12:03:38.481Z,81.90
2022-12-06T12:06:23.936Z,82.10
2022-12-06T12:09:05.215Z,82.30
2022-12-06T12:11:39.376Z,82.80
2022-12-06T12:14:20.452Z,83.50
2022-12-06T12:16:52.699Z,83.60
2022-12-06T12:19:41.685Z,83.60
2022-12-06T12:22:27.516Z,84.20
2022-12-06T12:25:18.420Z,85.20
2022-12-06T12:27:52.460Z,85.30
2022-12-06T12:30:29.140Z,85.80
2022-12-06T12:33:20.581Z,86.20
2022-12-06T12:36:11.333Z,86.70
2022-12-06T12:38:59.519Z,87.20
2022-12-06T12:41:39.882Z,87.50
2022-12-06T12:44:39.371Z,87.70
2022-12-06T12:47:23.680Z,88.20
2022-12-06T12:50:05.921Z,88.50
2022-12-06T12:52:44.385Z,88.80
2022-12-06T12:55:31.045Z,89.20
2022-12-06T12:58:02.849Z,89.60
2022-12-06T13:00:43.894Z,89.80
2022-12-06T13:03:50.098Z,90.10
2022-12-06T13:06:29.492Z,90.20
2022-12-06T13:09:03.975Z,90.30
2022-12-06T13:11:41.152Z,90.40
2022-12-06T13:14:20.392Z,90.50
2022-12-06T13:16:56.216Z,90.50
2022-12-06T13:19:40.939Z,90.60
2022-12-06T13:22:22.316Z,90.60
2022-12-06T13:25:03.710Z,90.70
2022-12-06T13:27:40.233Z,90.70
2022-12-06T13:30:20.261Z,90.60
2022-12-06T13:32:59.912Z,90.80
2022-12-06T13:35:37.994Z,90.80
2022-12-06T13:38:28.442Z,90.90
2022-12-06T13:41:02.919Z,90.90
2022-12-06T13:43:52.882Z,90.90
2022-12-06T13:46:28.370Z,91.00
2022-12-06T13:49:08.571Z,91.00
2022-12-06T13:51:46.903Z,91.00
2022-12-06T13:54:32.813Z,91.10
2022-12-06T13:57:06.544Z,91.20
2022-12-06T13:59:41.199Z,91.30
2022-12-06T14:02:48.259Z,90.90
2022-12-06T14:05:48.080Z,91.00
2022-12-06T14:08:18.558Z,90.90
2022-12-06T14:10:48.489Z,91.00
2022-12-06T14:13:21.383Z,91.00
2022-12-06T14:15:54.418Z,91.00
2022-12-06T14:18:28.267Z,90.90
2022-12-06T14:21:02.908Z,91.20
2022-12-06T14:23:43.501Z,91.10
2022-12-06T14:26:22.022Z,91.10
2022-12-06T14:28:56.041Z,91.20
2022-12-06T14:31:44.469Z,91.00
2022-12-06T14:34:32.497Z,91.10
2022-12-06T14:37:06.186Z,91.30
2022-12-06T14:39:37.057Z,91.40
2022-12-06T14:42:39.815Z,91.50
2022-12-06T14:45:17.339Z,91.50
2022-12-06T14:47:49.461Z,91.50
2022-12-06T14:50:42.353Z,91.50
2022-12-06T14:53:40.015Z,91.50
2022-12-06T14:56:30.519Z,91.60
2022-12-06T14:59:15.858Z,91.70
2022-12-06T15:02:03.525Z,91.70
2022-12-06T15:04:42.823Z,91.70
2022-12-06T15:07:43.219Z,91.90
2022-12-06T15:10:34.796Z,92.10
2022-12-06T15:13:20.644Z,92.30
2022-12-06T15:16:06.660Z,92.50
2022-12-06T15:19:03.989Z,92.70
2022-12-06T15:21:35.640Z,92.90
2022-12-06T15:24:06.185Z,93.10
2022-12-06T15:26:37.674Z,93.10
2022-12-06T15:29:08.622Z,93.20
2022-12-06T15:31:44.655Z,93.30
2022-12-06T15:34:34.219Z,93.50
2022-12-06T15:39:56.885Z,93.30
2022-12-06T15:42:27.753Z,93.30
2022-12-06T15:44:58.528Z,93.30
2022-12-06T15:47:29.203Z,93.40
2022-12-06T15:50:00.193Z,93.30
2022-12-06T15:52:31.484Z,93.40
2022-12-06T15:55:02.687Z,93.50
2022-12-06T15:57:34.153Z,93.70
2022-12-06T16:00:04.973Z,93.70
2022-12-06T16:02:36.257Z,93.70
2022-12-06T16:05:07.867Z,93.70
2022-12-06T16:07:38.592Z,93.80
2022-12-06T16:10:09.953Z,93.70
2022-12-06T16:12:54.935Z,93.70
2022-12-06T16:15:25.375Z,93.70
2022-12-06T16:17:56.327Z,93.60
2022-12-06T16:20:33.767Z,93.70
2022-12-06T16:23:34.718Z,93.60
2022-12-06T16:26:16.951Z,93.60
2022-12-06T16:28:47.619Z,93.80
2022-12-06T16:31:17.497Z,93.80
2022-12-06T16:33:48.012Z,93.90
2022-12-06T16:36:24.156Z,93.70
2022-12-06T16:38:56.561Z,93.70
2022-12-06T16:41:31.047Z,93.70
2022-12-06T16:44:01.807Z,93.60
2022-12-06T16:46:39.070Z,93.90
2022-12-06T16:52:11.111Z,93.70
2022-12-06T16:54:42.956Z,93.80
2022-12-06T16:57:15.049Z,93.80
2022-12-06T16:59:45.279Z,93.80
2022-12-06T17:02:31.885Z,93.80
2022-12-06T17:05:03.626Z,93.80
2022-12-06T17:07:33.987Z,93.80
2022-12-06T17:10:04.066Z,93.80
2022-12-06T17:12:34.198Z,93.80
2022-12-06T17:15:04.529Z,93.80
2022-12-06T17:17:35.032Z,93.80
2022-12-06T17:20:05.142Z,93.90
2022-12-06T17:22:36.620Z,94.00
2022-12-06T17:25:08.294Z,94.00
2022-12-06T17:27:39.149Z,94.00
2022-12-06T17:30:13.990Z,94.00
2022-12-06T17:32:44.025Z,94.10
2022-12-06T17:35:14.087Z,94.00
2022-12-06T17:37:44.011Z,94.00
2022-12-06T17:40:14.528Z,94.30
2022-12-06T17:42:59.862Z,94.10
2022-12-06T17:45:30.359Z,94.10
2022-12-06T17:48:01.102Z,94.00
2022-12-06T17:50:31.132Z,94.00
2022-12-06T17:53:01.055Z,94.00
2022-12-06T17:55:30.946Z,94.00
2022-12-06T17:58:01.620Z,94.10
2022-12-06T18:00:30.915Z,94.10
2022-12-06T18:03:00.787Z,94.10
2022-12-06T18:05:31.619Z,94.10
2022-12-06T18:08:02.304Z,94.20
2022-12-06T18:10:31.812Z,94.00
2022-12-06T18:13:03.021Z,94.00
2022-12-06T18:15:40.696Z,94.00
2022-12-06T18:18:10.602Z,94.00
2022-12-06T18:20:41.364Z,94.00
2022-12-06T18:23:12.505Z,94.00
2022-12-06T18:25:43.487Z,94.00
2022-12-06T18:28:13.656Z,94.10
2022-12-06T18:30:43.569Z,94.10
2022-12-06T18:33:20.756Z,94.10
2022-12-06T18:35:55.887Z,94.20
2022-12-06T18:38:25.943Z,94.30
2022-12-06T18:41:03.794Z,94.20
2022-12-06T18:43:34.903Z,94.30
2022-12-06T18:46:16.437Z,94.30
2022-12-06T18:48:48.754Z,94.50
2022-12-06T18:51:22.376Z,94.20
2022-12-06T18:53:53.635Z,94.10
2022-12-06T18:56:25.015Z,94.00
2022-12-06T18:58:55.375Z,94.10
2022-12-06T19:01:29.454Z,94.10
2022-12-06T19:04:02.430Z,94.40
2022-12-06T19:06:34.954Z,94.30
2022-12-06T19:09:11.124Z,94.30
2022-12-06T19:11:44.550Z,94.50
2022-12-06T19:14:15.377Z,94.40
2022-12-06T19:16:48.581Z,94.40
2022-12-06T19:19:27.975Z,94.40
2022-12-06T19:21:59.242Z,94.40
2022-12-06T19:24:30.702Z,94.40
2022-12-06T19:27:00.827Z,94.40
2022-12-06T19:29:31.827Z,94.40
2022-12-06T19:32:01.974Z,94.70
2022-12-06T19:34:31.944Z,94.40
2022-12-06T19:37:01.880Z,94.30
2022-12-06T19:39:31.779Z,94.30
2022-12-06T19:42:16.979Z,94.30
2022-12-06T19:44:46.927Z,94.40
2022-12-06T19:47:17.001Z,94.50
2022-12-06T19:49:47.259Z,94.40
2022-12-06T19:52:17.194Z,94.40
2022-12-06T19:54:47.149Z,94.40
2022-12-06T19:57:17.279Z,94.50
2022-12-06T19:59:47.212Z,94.50
2022-12-06T20:02:17.106Z,94.50
2022-12-06T20:04:48.250Z,94.50
2022-12-06T20:07:18.339Z,94.40
2022-12-06T20:09:48.204Z,94.40
2022-12-06T20:12:18.202Z,94.40
2022-12-06T20:14:50.415Z,94.40
2022-12-06T20:17:23.631Z,94.40
2022-12-06T20:19:53.781Z,94.30
2022-12-06T20:22:24.402Z,94.30
2022-12-06T20:24:53.607Z,94.30
2022-12-06T20:27:42.953Z,94.30
2022-12-06T20:30:13.357Z,94.30
2022-12-06T20:32:43.546Z,94.30
2022-12-06T20:35:13.530Z,94.30
2022-12-06T20:37:43.596Z,94.30
2022-12-06T20:40:14.080Z,94.40
2022-12-06T20:42:43.908Z,94.40
2022-12-06T20:45:13.717Z,94.40
2022-12-06T20:47:43.553Z,94.30
2022-12-06T20:50:13.650Z,94.40
2022-12-06T20:52:43.468Z,94.40
2022-12-06T20:55:14.483Z,94.40
2022-12-06T20:57:44.865Z,94.40
2022-12-06T21:00:15.831Z,94.30
2022-12-06T21:02:46.285Z,94.30
2022-12-06T21:05:18.873Z,94.30
2022-12-06T21:07:49.592Z,94.20
2022-12-06T21:10:20.266Z,94.30
2022-12-06T21:12:50.120Z,94.30
2022-12-06T21:15:20.590Z,94.30
2022-12-06T21:17:51.002Z,94.30
2022-12-06T21:20:21.376Z,94.30
2022-12-06T21:22:51.802Z,94.40
2022-12-06T21:25:22.235Z,94.30
2022-12-06T21:27:52.666Z,94.30
2022-12-06T21:30:23.169Z,94.20
2022-12-06T21:32:53.608Z,94.20
2022-12-06T21:35:24.308Z,94.10
2022-12-06T21:37:54.068Z,94.10
2022-12-06T21:40:24.584Z,94.00
2022-12-06T21:42:54.984Z,94.20
2022-12-06T21:45:25.427Z,94.20
2022-12-06T21:47:55.679Z,94.20
2022-12-06T21:50:26.091Z,94.30
2022-12-06T21:52:58.197Z,94.30
2022-12-06T21:55:29.159Z,94.40
2022-12-06T21:58:00.114Z,94.10
2022-12-06T22:00:30.641Z,94.50
2022-12-06T22:03:01.113Z,94.50
2022-12-06T22:05:31.727Z,94.50
2022-12-06T22:08:02.115Z,94.50
2022-12-06T22:10:32.743Z,94.50
2022-12-06T22:13:03.196Z,94.50
2022-12-06T22:15:35.153Z,94.60
2022-12-06T22:18:05.895Z,94.40
2022-12-06T22:20:36.340Z,94.30
2022-12-06T22:23:06.682Z,94.30
2022-12-06T22:25:40.823Z,94.40
2022-12-06T22:28:11.154Z,94.40
2022-12-06T22:30:41.575Z,94.40
2022-12-06T22:33:11.912Z,94.40
2022-12-06T22:35:42.445Z,94.50
2022-12-06T22:38:12.985Z,94.40
2022-12-06T22:40:43.428Z,94.50
2022-12-06T22:43:13.726Z,94.60
2022-12-06T22:45:44.208Z,94.60
2022-12-06T22:48:14.608Z,94.70
2022-12-06T22:50:45.002Z,94.70
2022-12-06T22:53:15.598Z,94.40
2022-12-06T22:55:45.938Z,94.60
2022-12-06T22:58:16.360Z,94.70
2022-12-06T23:00:46.650Z,94.60
2022-12-06T23:03:17.044Z,94.50
2022-12-06T23:05:47.574Z,94.50
2022-12-06T23:08:18.128Z,94.50
2022-12-06T23:10:48.530Z,94.50
2022-12-06T23:13:18.937Z,94.50
2022-12-06T23:15:59.809Z,94.40
2022-12-06T23:18:32.047Z,94.30
2022-12-06T23:21:14.957Z,94.40
2022-12-06T23:23:49.187Z,94.40
2022-12-06T23:26:23.844Z,94.40
2022-12-06T23:28:54.507Z,94.40
2022-12-06T23:31:28.675Z,94.40
2022-12-06T23:34:02.205Z,94.40
2022-12-06T23:36:35.823Z,94.40
2022-12-06T23:39:07.705Z,94.60
2022-12-06T23:41:39.264Z,94.60
2022-12-06T23:44:12.168Z,94.60
2022-12-06T23:46:44.349Z,94.60
2022-12-06T23:49:22.845Z,94.50
2022-12-06T23:51:53.338Z,94.60
2022-12-06T23:54:23.911Z,94.60
2022-12-06T23:56:54.455Z,94.50
2022-12-06T23:59:24.995Z,94.50
